Time;durP1;ratioP1;P1;durP2;ratioP2;P2;SDS_P1;SDS_P2;PMS_P1;PMS_P2;Temp;Humidity;BMP_temperature;BMP_pressure;BME280_temperature;BME280_humidity;BME280_pressure;Samples;Min_cycle;Max_cycle;Signal;HPM_P1;HPM_P2
2021/01/26 00:01:28;;;;;;;6.07;2.63;;;;;;;;;;4994370;28;20030;-77
2021/01/26 00:03:54;;;;;;;5.55;2.90;;;;;;;;;;4995398;28;20072;-77
2021/01/26 00:06:19;;;;;;;4.90;2.72;;;;;;;;;;4994957;28;20512;-77
2021/01/26 00:08:45;;;;;;;5.22;2.25;;;;;;;;;;4978426;28;20063;-77
2021/01/26 00:11:10;;;;;;;4.15;2.17;;;;;;;;;;4994356;28;20121;-77
2021/01/26 00:13:36;;;;;;;4.43;2.47;;;;;;;;;;4979566;28;20026;-77
2021/01/26 00:16:02;;;;;;;4.03;2.50;;;;;;;;;;4994899;28;20548;-77
2021/01/26 00:18:27;;;;;;;4.85;2.47;;;;;;;;;;5011321;28;20151;-77
2021/01/26 00:20:53;;;;;;;4.25;2.08;;;;;;;;;;4978834;28;20030;-77
2021/01/26 00:23:18;;;;;;;4.78;2.30;;;;;;;;;;4978446;28;20818;-77
2021/01/26 00:25:44;;;;;;;4.72;2.30;;;;;;;;;;4978346;28;20397;-77
2021/01/26 00:28:11;;;;;;;4.60;2.35;;;;;;;;;;4977169;28;20472;-77
2021/01/26 00:30:38;;;;;;;6.10;2.40;;;;;;;;;;4993252;28;20539;-77
2021/01/26 00:33:12;;;;;;;4.85;2.55;;;;;;;;;;4977510;28;20053;-77
2021/01/26 00:35:37;;;;;;;4.47;2.22;;;;;;;;;;4979911;28;20530;-76
2021/01/26 00:38:03;;;;;;;6.05;2.95;;;;;;;;;;4995244;28;20029;-76
2021/01/26 00:40:29;;;;;;;4.38;2.22;;;;;;;;;;4994047;28;20018;-76
2021/01/26 00:42:54;;;;;;;3.40;1.95;;;;;;;;;;4977296;28;20049;-76
2021/01/26 00:45:20;;;;;;;4.15;1.88;;;;;;;;;;4994183;28;20034;-76
2021/01/26 00:47:46;;;;;;;3.88;2.17;;;;;;;;;;4994075;28;20046;-76
2021/01/26 00:50:11;;;;;;;4.65;2.15;;;;;;;;;;4981437;28;20034;-76
2021/01/26 00:52:37;;;;;;;5.50;2.60;;;;;;;;;;4995973;28;20077;-76
2021/01/26 00:55:04;;;;;;;3.88;2.60;;;;;;;;;;4993761;28;20083;-76
2021/01/26 00:57:29;;;;;;;5.10;2.47;;;;;;;;;;5010169;28;20030;-76
2021/01/26 00:59:54;;;;;;;4.70;2.45;;;;;;;;;;4993491;28;20040;-76
2021/01/26 01:02:20;;;;;;;4.55;2.78;;;;;;;;;;4994118;28;20427;-76
2021/01/26 01:04:46;;;;;;;3.67;2.08;;;;;;;;;;4977260;28;20050;-76
2021/01/26 01:07:12;;;;;;;5.28;2.05;;;;;;;;;;4977816;28;20416;-76
2021/01/26 01:09:37;;;;;;;3.28;2.10;;;;;;;;;;4992560;28;20027;-76
2021/01/26 01:12:03;;;;;;;3.95;2.03;;;;;;;;;;4979272;28;20026;-76
2021/01/26 01:14:29;;;;;;;4.18;1.95;;;;;;;;;;5011445;28;20361;-76
2021/01/26 01:16:54;;;;;;;4.35;2.20;;;;;;;;;;4993946;28;20125;-76
2021/01/26 01:19:20;;;;;;;4.93;2.13;;;;;;;;;;4993732;28;20365;-76
2021/01/26 01:21:46;;;;;;;4.70;2.55;;;;;;;;;;4977255;28;20113;-76
2021/01/26 01:24:11;;;;;;;4.10;2.10;;;;;;;;;;4993805;28;20494;-76
2021/01/26 01:26:37;;;;;;;4.28;2.47;;;;;;;;;;4977581;28;20048;-76
2021/01/26 01:29:02;;;;;;;3.80;2.08;;;;;;;;;;5009916;28;20369;-76
2021/01/26 01:31:28;;;;;;;4.70;2.20;;;;;;;;;;4979014;28;20368;-76
2021/01/26 01:33:53;;;;;;;4.28;2.30;;;;;;;;;;4977583;28;20057;-76
2021/01/26 01:36:19;;;;;;;5.15;2.08;;;;;;;;;;5009944;28;20030;-77
2021/01/26 01:38:44;;;;;;;3.20;1.70;;;;;;;;;;5012873;28;20104;-76
2021/01/26 01:41:10;;;;;;;5.53;2.30;;;;;;;;;;4976423;28;20105;-76
2021/01/26 01:43:36;;;;;;;4.47;1.98;;;;;;;;;;5009709;28;20044;-76
2021/01/26 01:46:01;;;;;;;3.72;2.00;;;;;;;;;;4993145;28;20033;-76
2021/01/26 01:48:28;;;;;;;3.33;1.77;;;;;;;;;;4993622;28;20108;-76
2021/01/26 01:50:58;;;;;;;2.72;1.60;;;;;;;;;;4991908;28;20026;-76
2021/01/26 01:53:32;;;;;;;3.50;1.77;;;;;;;;;;4968961;28;20038;-76
2021/01/26 01:56:11;;;;;;;5.18;1.90;;;;;;;;;;4975482;28;20400;-76
2021/01/26 01:58:42;;;;;;;4.55;1.95;;;;;;;;;;4989234;28;20042;-76
2021/01/26 02:01:18;;;;;;;3.97;1.63;;;;;;;;;;4976851;28;20088;-77
2021/01/26 02:03:55;;;;;;;4.45;1.75;;;;;;;;;;5008073;28;20064;-76
2021/01/26 02:06:22;;;;;;;3.17;1.60;;;;;;;;;;4976779;28;20395;-76
2021/01/26 02:08:58;;;;;;;3.55;1.95;;;;;;;;;;4993279;28;20029;-77
2021/01/26 02:11:24;;;;;;;3.60;1.95;;;;;;;;;;5007849;28;20032;-77
2021/01/26 02:13:49;;;;;;;4.50;1.80;;;;;;;;;;5009126;28;20112;-77
2021/01/26 02:16:41;;;;;;;3.17;2.03;;;;;;;;;;4991971;28;20037;-76
2021/01/26 02:19:43;;;;;;;3.22;2.03;;;;;;;;;;5012539;28;20034;-77
2021/01/26 02:22:42;;;;;;;4.40;1.73;;;;;;;;;;5010238;28;20108;-77
2021/01/26 02:25:26;;;;;;;4.25;1.77;;;;;;;;;;5008843;28;20091;-77
2021/01/26 02:28:13;;;;;;;4.18;1.55;;;;;;;;;;5008517;28;20054;-77
2021/01/26 02:30:57;;;;;;;3.10;1.65;;;;;;;;;;4990478;28;20041;-76
2021/01/26 02:33:50;;;;;;;5.60;2.25;;;;;;;;;;5010132;28;20072;-76
2021/01/26 02:36:36;;;;;;;3.85;1.60;;;;;;;;;;5008983;28;20034;-76
2021/01/26 02:39:29;;;;;;;4.13;1.45;;;;;;;;;;5009654;28;20058;-76
2021/01/26 02:42:03;;;;;;;4.82;1.85;;;;;;;;;;5007177;28;20038;-76
2021/01/26 02:44:49;;;;;;;2.88;1.58;;;;;;;;;;5007658;28;20408;-76
2021/01/26 02:47:21;;;;;;;4.00;1.30;;;;;;;;;;5008012;28;20115;-76
2021/01/26 02:50:13;;;;;;;4.10;1.40;;;;;;;;;;5009060;28;20040;-76
2021/01/26 02:52:45;;;;;;;2.37;1.40;;;;;;;;;;4985645;28;20056;-76
2021/01/26 02:55:14;;;;;;;3.33;1.30;;;;;;;;;;5007334;28;20289;-77
2021/01/26 02:57:49;;;;;;;4.25;1.75;;;;;;;;;;4993846;28;20396;-77
2021/01/26 03:00:20;;;;;;;4.80;1.60;;;;;;;;;;5009834;28;20030;-76
2021/01/26 03:02:47;;;;;;;3.30;1.40;;;;;;;;;;5011727;28;20034;-76
2021/01/26 03:05:35;;;;;;;4.03;1.23;;;;;;;;;;5012776;28;20400;-76
2021/01/26 03:08:04;;;;;;;2.53;1.33;;;;;;;;;;5010291;28;20026;-76
2021/01/26 03:10:42;;;;;;;2.53;1.10;;;;;;;;;;4995370;28;20026;-77
2021/01/26 03:13:09;;;;;;;3.20;1.30;;;;;;;;;;4996725;28;20152;-76
2021/01/26 03:15:38;;;;;;;2.50;1.40;;;;;;;;;;4979616;28;20045;-77
2021/01/26 03:18:05;;;;;;;3.67;1.52;;;;;;;;;;4979563;28;20069;-76
2021/01/26 03:20:52;;;;;;;2.25;1.00;;;;;;;;;;4979164;28;20042;-77
2021/01/26 03:23:37;;;;;;;5.43;1.77;;;;;;;;;;5011336;28;20034;-76
2021/01/26 03:26:03;;;;;;;3.40;1.33;;;;;;;;;;4997548;28;20088;-77
2021/01/26 03:28:28;;;;;;;3.47;1.10;;;;;;;;;;4979890;28;20037;-76
2021/01/26 03:30:55;;;;;;;3.80;1.30;;;;;;;;;;4995404;28;20045;-76
2021/01/26 03:33:23;;;;;;;3.25;1.13;;;;;;;;;;4995347;28;20040;-77
2021/01/26 03:35:49;;;;;;;3.75;1.20;;;;;;;;;;4979984;28;20110;-76
2021/01/26 03:38:22;;;;;;;4.35;1.50;;;;;;;;;;4996501;28;20121;-77
2021/01/26 03:40:51;;;;;;;3.55;1.10;;;;;;;;;;4978961;28;20057;-76
2021/01/26 03:43:17;;;;;;;4.25;1.23;;;;;;;;;;4978589;28;20074;-77
2021/01/26 03:45:42;;;;;;;4.05;1.20;;;;;;;;;;5010244;28;20503;-77
2021/01/26 03:48:25;;;;;;;2.00;0.68;;;;;;;;;;4995550;28;20045;-76
2021/01/26 03:50:58;;;;;;;2.83;1.40;;;;;;;;;;4993953;28;20101;-77
2021/01/26 03:53:39;;;;;;;4.22;1.42;;;;;;;;;;4981865;28;20041;-77
2021/01/26 03:56:18;;;;;;;3.05;1.33;;;;;;;;;;5013492;28;20037;-77
2021/01/26 03:59:08;;;;;;;3.58;1.00;;;;;;;;;;4998218;28;20045;-77
2021/01/26 04:01:40;;;;;;;3.78;1.13;;;;;;;;;;4982650;28;20034;-77
2021/01/26 04:04:18;;;;;;;4.60;1.52;;;;;;;;;;5013191;28;20125;-77
2021/01/26 04:06:51;;;;;;;2.05;0.90;;;;;;;;;;5012958;28;20030;-77
2021/01/26 04:09:19;;;;;;;2.17;1.10;;;;;;;;;;4997520;28;20116;-77
2021/01/26 04:12:03;;;;;;;3.50;1.40;;;;;;;;;;4997272;28;20046;-77
2021/01/26 04:14:52;;;;;;;3.53;1.10;;;;;;;;;;5012854;28;20136;-77
2021/01/26 04:17:32;;;;;;;3.58;1.50;;;;;;;;;;4981453;28;20494;-77
2021/01/26 04:20:12;;;;;;;2.90;1.17;;;;;;;;;;4996692;28;20045;-77
2021/01/26 04:22:38;;;;;;;3.20;1.40;;;;;;;;;;4998186;28;20034;-77
2021/01/26 04:25:50;;;;;;;3.72;1.20;;;;;;;;;;4980422;28;20053;-77
2021/01/26 04:28:37;;;;;;;3.00;1.30;;;;;;;;;;5009542;28;20065;-77
2021/01/26 04:31:03;;;;;;;2.92;0.90;;;;;;;;;;4998951;28;20053;-77
2021/01/26 04:33:28;;;;;;;3.05;1.08;;;;;;;;;;4996776;28;20026;-77
2021/01/26 04:35:54;;;;;;;4.38;1.75;;;;;;;;;;4996546;28;20049;-77
2021/01/26 04:38:19;;;;;;;3.08;1.13;;;;;;;;;;4996739;28;20365;-77
2021/01/26 04:40:45;;;;;;;2.38;0.90;;;;;;;;;;4996720;28;20392;-77
2021/01/26 04:43:13;;;;;;;3.35;1.35;;;;;;;;;;4996532;28;20376;-77
2021/01/26 04:45:53;;;;;;;3.42;1.13;;;;;;;;;;5013650;28;20040;-77
2021/01/26 04:48:51;;;;;;;2.33;1.10;;;;;;;;;;4997725;28;20030;-77
2021/01/26 04:51:33;;;;;;;3.33;1.20;;;;;;;;;;5011906;28;20050;-77
2021/01/26 04:54:09;;;;;;;4.05;1.30;;;;;;;;;;4996931;28;20050;-77
2021/01/26 04:56:56;;;;;;;2.70;1.00;;;;;;;;;;5012697;28;20144;-77
2021/01/26 04:59:32;;;;;;;4.53;1.13;;;;;;;;;;4996533;28;20044;-77
2021/01/26 05:02:35;;;;;;;3.70;1.33;;;;;;;;;;5011883;28;20030;-77
2021/01/26 05:05:09;;;;;;;3.33;1.17;;;;;;;;;;5012820;28;20036;-77
2021/01/26 05:07:48;;;;;;;3.63;1.30;;;;;;;;;;4980029;28;20053;-77
2021/01/26 05:10:16;;;;;;;4.30;1.40;;;;;;;;;;4996274;28;20163;-77
2021/01/26 05:13:15;;;;;;;4.28;1.20;;;;;;;;;;5013312;28;20079;-77
2021/01/26 05:15:41;;;;;;;3.10;1.38;;;;;;;;;;4998573;28;20099;-77
2021/01/26 05:18:20;;;;;;;4.20;1.60;;;;;;;;;;4979355;28;20080;-77
2021/01/26 05:20:47;;;;;;;2.63;0.90;;;;;;;;;;4963299;28;20021;-77
2021/01/26 05:23:18;;;;;;;2.83;1.20;;;;;;;;;;4995758;28;20041;-77
2021/01/26 05:25:43;;;;;;;2.72;0.90;;;;;;;;;;4996075;28;20118;-77
2021/01/26 05:28:09;;;;;;;2.42;1.00;;;;;;;;;;4995210;28;20117;-77
2021/01/26 05:30:37;;;;;;;4.30;1.25;;;;;;;;;;4995232;28;20048;-77
2021/01/26 05:33:12;;;;;;;3.90;1.35;;;;;;;;;;4979871;28;20037;-77
2021/01/26 05:35:39;;;;;;;2.95;0.88;;;;;;;;;;4980625;28;20061;-77
2021/01/26 05:38:05;;;;;;;5.45;1.42;;;;;;;;;;4987163;28;20041;-77
2021/01/26 05:40:33;;;;;;;2.95;1.05;;;;;;;;;;5013883;28;20029;-77
2021/01/26 05:43:00;;;;;;;3.03;1.30;;;;;;;;;;5014978;28;20090;-77
2021/01/26 05:45:28;;;;;;;2.70;1.13;;;;;;;;;;5003455;28;20496;-77
2021/01/26 05:48:24;;;;;;;3.83;1.33;;;;;;;;;;4991887;28;20030;-77
2021/01/26 05:50:50;;;;;;;3.53;1.00;;;;;;;;;;4967303;28;20121;-77
2021/01/26 05:53:19;;;;;;;3.08;0.90;;;;;;;;;;4978969;28;20048;-77
2021/01/26 05:55:58;;;;;;;4.70;1.65;;;;;;;;;;4995567;28;20045;-77
2021/01/26 05:58:28;;;;;;;3.10;1.05;;;;;;;;;;4996645;28;20033;-77
2021/01/26 06:00:57;;;;;;;3.40;1.05;;;;;;;;;;4994682;28;20041;-77
2021/01/26 06:03:23;;;;;;;3.95;1.55;;;;;;;;;;4994937;28;20041;-77
2021/01/26 06:06:21;;;;;;;3.15;0.70;;;;;;;;;;4977834;28;20034;-77
2021/01/26 06:08:50;;;;;;;2.55;0.80;;;;;;;;;;4989525;28;20041;-77
2021/01/26 06:11:22;;;;;;;2.35;0.98;;;;;;;;;;5011136;28;20026;-77
2021/01/26 06:13:48;;;;;;;3.45;1.48;;;;;;;;;;4979050;28;20041;-77
2021/01/26 06:16:19;;;;;;;4.82;1.45;;;;;;;;;;4994475;28;20033;-77
2021/01/26 06:19:01;;;;;;;2.83;0.88;;;;;;;;;;4993886;28;20076;-77
2021/01/26 06:21:28;;;;;;;2.78;1.17;;;;;;;;;;5011360;28;20472;-77
2021/01/26 06:23:57;;;;;;;4.50;1.20;;;;;;;;;;4978599;28;20503;-84
2021/01/26 06:26:24;;;;;;;4.47;1.50;;;;;;;;;;4993858;28;20078;-83
2021/01/26 06:28:53;;;;;;;2.92;1.20;;;;;;;;;;4976720;28;20103;-81
2021/01/26 06:31:31;;;;;;;3.92;1.35;;;;;;;;;;4991712;28;20051;-84
2021/01/26 06:34:02;;;;;;;3.85;1.30;;;;;;;;;;4978567;28;20026;-84
2021/01/26 06:36:50;;;;;;;2.53;1.00;;;;;;;;;;4994278;28;20451;-83
2021/01/26 06:39:49;;;;;;;3.72;1.20;;;;;;;;;;4978259;28;20483;-84
2021/01/26 06:42:17;;;;;;;5.95;1.65;;;;;;;;;;4994786;28;20033;-84
2021/01/26 06:45:16;;;;;;;4.20;1.10;;;;;;;;;;4994173;28;20034;-84
2021/01/26 06:48:03;;;;;;;3.53;1.30;;;;;;;;;;5011182;28;20079;-84
2021/01/26 06:50:49;;;;;;;5.00;1.52;;;;;;;;;;4996675;28;20026;-84
2021/01/26 06:53:42;;;;;;;8.65;1.35;;;;;;;;;;4974955;28;20030;-84
2021/01/26 06:56:28;;;;;;;4.18;1.42;;;;;;;;;;4975117;28;20049;-84
2021/01/26 06:59:20;;;;;;;4.85;1.92;;;;;;;;;;4990637;28;20045;-84
2021/01/26 07:02:23;;;;;;;3.53;1.10;;;;;;;;;;4991082;28;20114;-84
2021/01/26 07:05:03;;;;;;;4.28;1.15;;;;;;;;;;4991149;28;20289;-83
2021/01/26 07:07:50;;;;;;;6.38;1.63;;;;;;;;;;4974404;28;20061;-83
2021/01/26 07:10:50;;;;;;;3.72;1.10;;;;;;;;;;4999587;28;20050;-84
2021/01/26 07:13:30;;;;;;;4.43;1.52;;;;;;;;;;5010299;28;20040;-85
2021/01/26 07:16:02;;;;;;;4.93;1.38;;;;;;;;;;4975326;28;20037;-85
2021/01/26 07:18:37;;;;;;;3.55;1.00;;;;;;;;;;4958704;28;20501;-86
2021/01/26 07:21:11;;;;;;;6.63;1.35;;;;;;;;;;4990713;28;20069;-85
2021/01/26 07:23:48;;;;;;;8.15;1.38;;;;;;;;;;4958496;28;20559;-84
2021/01/26 07:26:37;;;;;;;4.82;1.85;;;;;;;;;;4982074;28;20444;-85
2021/01/26 07:29:17;;;;;;;7.47;1.55;;;;;;;;;;4990641;28;20045;-84
2021/01/26 07:31:52;;;;;;;3.92;1.48;;;;;;;;;;4977046;28;20030;-84
2021/01/26 07:34:23;;;;;;;7.85;1.60;;;;;;;;;;4974659;28;20065;-85
2021/01/26 07:37:12;;;;;;;4.45;1.15;;;;;;;;;;4993476;28;20017;-84
2021/01/26 07:39:45;;;;;;;6.63;1.38;;;;;;;;;;4975393;28;20096;-84
2021/01/26 07:42:20;;;;;;;5.22;1.30;;;;;;;;;;4976324;28;20036;-84
2021/01/26 07:45:07;;;;;;;3.53;1.30;;;;;;;;;;4995805;28;20042;-84
2021/01/26 07:47:34;;;;;;;5.47;1.30;;;;;;;;;;4997701;28;20030;-85
2021/01/26 07:50:21;;;;;;;5.43;1.25;;;;;;;;;;4981434;28;20076;-84
2021/01/26 07:52:47;;;;;;;5.97;2.58;;;;;;;;;;4979872;28;20029;-84
2021/01/26 07:55:17;;;;;;;4.95;1.08;;;;;;;;;;4961494;28;20490;-83
2021/01/26 07:57:45;;;;;;;4.00;1.75;;;;;;;;;;4978769;28;20037;-83
2021/01/26 08:00:11;;;;;;;3.70;1.20;;;;;;;;;;4996899;28;20062;-84
2021/01/26 08:02:37;;;;;;;5.30;1.25;;;;;;;;;;4980989;28;20030;-85
2021/01/26 08:05:14;;;;;;;4.30;1.20;;;;;;;;;;4965148;28;20436;-84
2021/01/26 08:07:39;;;;;;;3.10;1.30;;;;;;;;;;4981477;28;20499;-84
2021/01/26 08:10:05;;;;;;;4.85;1.08;;;;;;;;;;4980920;28;20046;-85
2021/01/26 08:12:30;;;;;;;4.90;1.92;;;;;;;;;;4964493;28;20032;-85
2021/01/26 08:15:28;;;;;;;5.43;1.33;;;;;;;;;;4996598;28;20030;-85
2021/01/26 08:17:53;;;;;;;3.78;1.05;;;;;;;;;;4982887;28;20684;-85
2021/01/26 08:20:31;;;;;;;3.40;1.40;;;;;;;;;;4980531;28;20038;-85
2021/01/26 08:23:04;;;;;;;6.20;1.48;;;;;;;;;;4996998;28;20369;-85
2021/01/26 08:25:32;;;;;;;3.05;1.10;;;;;;;;;;4981547;28;20177;-84
2021/01/26 08:28:04;;;;;;;3.00;1.23;;;;;;;;;;4980450;28;20026;-85
2021/01/26 08:30:29;;;;;;;3.85;1.10;;;;;;;;;;4996514;28;20117;-85
2021/01/26 08:33:18;;;;;;;4.10;1.13;;;;;;;;;;4993205;28;20507;-85
2021/01/26 08:36:02;;;;;;;3.45;1.30;;;;;;;;;;4993153;28;20031;-86
2021/01/26 08:38:53;;;;;;;2.38;1.23;;;;;;;;;;5017039;28;20098;-85
2021/01/26 08:41:51;;;;;;;5.82;1.02;;;;;;;;;;5015980;28;20025;-84
2021/01/26 08:44:19;;;;;;;3.13;1.15;;;;;;;;;;4999252;28;20559;-84
2021/01/26 08:46:45;;;;;;;5.13;1.38;;;;;;;;;;4997484;28;20531;-85
2021/01/26 08:49:26;;;;;;;4.15;1.45;;;;;;;;;;4980163;28;20030;-85
2021/01/26 08:51:52;;;;;;;5.45;1.20;;;;;;;;;;4980176;28;20076;-86
2021/01/26 08:54:40;;;;;;;3.80;1.48;;;;;;;;;;4979217;28;20041;-85
2021/01/26 08:57:29;;;;;;;3.72;1.60;;;;;;;;;;4995855;28;20099;-85
2021/01/26 09:00:12;;;;;;;3.10;0.90;;;;;;;;;;4995396;28;20033;-85
2021/01/26 09:02:58;;;;;;;3.95;1.38;;;;;;;;;;5012736;28;20038;-87
2021/01/26 09:05:35;;;;;;;2.63;1.25;;;;;;;;;;4979538;28;20049;-84
2021/01/26 09:08:05;;;;;;;4.03;1.80;;;;;;;;;;4995650;28;20030;-85
2021/01/26 09:10:49;;;;;;;3.45;1.33;;;;;;;;;;4980796;28;20030;-84
2021/01/26 09:13:26;;;;;;;3.65;1.20;;;;;;;;;;4995707;28;20045;-85
2021/01/26 09:15:54;;;;;;;2.53;1.35;;;;;;;;;;4995943;28;20037;-85
2021/01/26 09:18:22;;;;;;;3.67;1.50;;;;;;;;;;4979844;28;20038;-86
2021/01/26 09:21:06;;;;;;;2.55;1.10;;;;;;;;;;4963741;28;20026;-87
2021/01/26 09:23:32;;;;;;;4.82;1.50;;;;;;;;;;4981697;28;20472;-86
2021/01/26 09:25:58;;;;;;;3.35;1.17;;;;;;;;;;4979538;28;20041;-88
2021/01/26 09:28:24;;;;;;;3.47;1.15;;;;;;;;;;4963403;28;20059;-86
2021/01/26 09:30:57;;;;;;;4.10;1.30;;;;;;;;;;4959950;28;20032;-86
2021/01/26 09:33:26;;;;;;;3.97;1.40;;;;;;;;;;4960460;28;20445;-86
2021/01/26 09:35:53;;;;;;;3.95;1.40;;;;;;;;;;4961175;28;20034;-86
2021/01/26 09:38:19;;;;;;;4.78;1.52;;;;;;;;;;4963536;28;20050;-87
2021/01/26 09:40:54;;;;;;;3.63;1.60;;;;;;;;;;4979296;28;20037;-87
2021/01/26 09:43:33;;;;;;;3.72;1.30;;;;;;;;;;4979815;28;20088;-87
2021/01/26 09:46:06;;;;;;;2.85;1.15;;;;;;;;;;4980082;28;20030;-86
2021/01/26 09:48:36;;;;;;;3.95;1.05;;;;;;;;;;4979530;28;20113;-86
2021/01/26 09:51:27;;;;;;;4.20;1.50;;;;;;;;;;4979775;28;20091;-86
2021/01/26 09:54:09;;;;;;;3.83;1.43;;;;;;;;;;4977319;28;20405;-87
2021/01/26 09:56:35;;;;;;;3.38;1.20;;;;;;;;;;4964522;28;20297;-87
2021/01/26 09:59:01;;;;;;;4.10;1.40;;;;;;;;;;4959877;28;20078;-87
2021/01/26 10:01:26;;;;;;;3.00;1.15;;;;;;;;;;4975910;28;20098;-86
2021/01/26 10:03:57;;;;;;;3.58;1.20;;;;;;;;;;4975841;28;20401;-87
2021/01/26 10:06:23;;;;;;;3.88;1.70;;;;;;;;;;4959990;28;20389;-86
2021/01/26 10:08:48;;;;;;;3.63;1.42;;;;;;;;;;4959335;28;20038;-77
2021/01/26 10:11:18;;;;;;;3.70;1.38;;;;;;;;;;4975246;28;20038;-77
2021/01/26 10:13:44;;;;;;;3.80;1.30;;;;;;;;;;4959771;28;20480;-77
2021/01/26 10:16:33;;;;;;;3.38;0.90;;;;;;;;;;4975522;28;20044;-77
2021/01/26 10:18:59;;;;;;;2.95;1.13;;;;;;;;;;4991476;28;20156;-78
2021/01/26 10:21:28;;;;;;;4.32;1.80;;;;;;;;;;4975512;28;20408;-77
2021/01/26 10:24:02;;;;;;;2.83;1.17;;;;;;;;;;4975184;28;20105;-82
2021/01/26 10:26:30;;;;;;;2.40;1.42;;;;;;;;;;4959419;28;20634;-81
2021/01/26 10:29:12;;;;;;;3.33;1.77;;;;;;;;;;4957481;28;20519;-81
2021/01/26 10:31:46;;;;;;;2.70;1.42;;;;;;;;;;5001078;28;20037;-81
2021/01/26 10:34:20;;;;;;;4.13;1.88;;;;;;;;;;4992102;28;20041;-80
2021/01/26 10:36:45;;;;;;;3.63;1.67;;;;;;;;;;4974853;28;20080;-81
2021/01/26 10:39:28;;;;;;;6.57;1.60;;;;;;;;;;4977714;28;20431;-80
2021/01/26 10:41:57;;;;;;;;;;;;;;;;;;4959112;28;20030;-81
2021/01/26 10:44:22;;;;;;;4.68;1.60;;;;;;;;;;4990811;28;19909;-81
2021/01/26 10:46:49;;;;;;;4.18;1.88;;;;;;;;;;4963099;28;20571;-79
2021/01/26 10:49:26;;;;;;;3.70;1.85;;;;;;;;;;4994385;28;20084;-80
2021/01/26 10:51:52;;;;;;;5.63;1.85;;;;;;;;;;4989949;28;20117;-79
2021/01/26 10:54:17;;;;;;;3.45;1.67;;;;;;;;;;4974700;28;20397;-79
2021/01/26 10:56:43;;;;;;;5.57;1.40;;;;;;;;;;4977421;28;20391;-79
2021/01/26 10:59:08;;;;;;;3.13;1.65;;;;;;;;;;4994105;28;20084;-78
2021/01/26 11:01:34;;;;;;;5.13;1.75;;;;;;;;;;4977555;28;20046;-80
2021/01/26 11:03:59;;;;;;;3.75;1.50;;;;;;;;;;4993981;28;20439;-79
2021/01/26 11:06:25;;;;;;;5.55;1.52;;;;;;;;;;4993882;28;20044;-80
2021/01/26 11:08:51;;;;;;;7.22;1.48;;;;;;;;;;4977735;28;20037;-78
2021/01/26 11:11:17;;;;;;;5.63;1.67;;;;;;;;;;4977911;28;20060;-79
2021/01/26 11:13:43;;;;;;;5.50;2.28;;;;;;;;;;4994000;28;20037;-80
2021/01/26 11:16:08;;;;;;;4.68;1.50;;;;;;;;;;4993882;28;20030;-80
2021/01/26 11:18:33;;;;;;;4.05;1.60;;;;;;;;;;4996705;28;20040;-80
2021/01/26 11:20:59;;;;;;;4.55;1.30;;;;;;;;;;4997254;28;20030;-78
2021/01/26 11:23:24;;;;;;;5.82;1.55;;;;;;;;;;4997942;28;20045;-79
2021/01/26 11:25:51;;;;;;;3.22;1.65;;;;;;;;;;4981055;28;20492;-78
2021/01/26 11:28:16;;;;;;;2.72;1.17;;;;;;;;;;4981867;28;20034;-78
2021/01/26 11:30:42;;;;;;;2.15;1.20;;;;;;;;;;4977556;28;20037;-77
2021/01/26 11:33:08;;;;;;;4.47;1.42;;;;;;;;;;4978155;28;20138;-77
2021/01/26 11:35:34;;;;;;;3.83;1.48;;;;;;;;;;4977485;28;20030;-77
2021/01/26 11:37:59;;;;;;;5.13;1.83;;;;;;;;;;4981094;28;20061;-77
2021/01/26 11:40:25;;;;;;;6.93;1.98;;;;;;;;;;4981951;28;20068;-78
2021/01/26 11:42:51;;;;;;;5.50;1.77;;;;;;;;;;4981410;28;20037;-74
2021/01/26 11:45:21;;;;;;;6.93;2.10;;;;;;;;;;4991316;28;20065;-74
2021/01/26 11:47:46;;;;;;;7.22;2.33;;;;;;;;;;4997297;28;20036;-74
2021/01/26 11:50:12;;;;;;;7.82;2.55;;;;;;;;;;5014655;28;20105;-74
2021/01/26 11:52:38;;;;;;;8.38;2.65;;;;;;;;;;4994082;28;20032;-74
2021/01/26 11:55:05;;;;;;;7.47;2.55;;;;;;;;;;4995511;28;20133;-74
2021/01/26 11:57:31;;;;;;;6.63;2.85;;;;;;;;;;5005930;28;20044;-74
2021/01/26 11:59:58;;;;;;;4.22;2.58;;;;;;;;;;5005031;28;20037;-74
2021/01/26 12:02:24;;;;;;;8.13;2.08;;;;;;;;;;5019636;28;20056;-75
2021/01/26 12:04:49;;;;;;;7.95;2.13;;;;;;;;;;5007726;28;20480;-74
2021/01/26 12:07:15;;;;;;;8.25;2.85;;;;;;;;;;5033151;28;20395;-74
2021/01/26 12:09:40;;;;;;;7.25;2.20;;;;;;;;;;5032929;28;20040;-74
2021/01/26 12:12:06;;;;;;;8.18;2.28;;;;;;;;;;5032647;28;20030;-74
2021/01/26 12:14:31;;;;;;;6.53;2.03;;;;;;;;;;5032751;28;20037;-74
2021/01/26 12:16:57;;;;;;;17.63;2.80;;;;;;;;;;5000162;28;20036;-74
2021/01/26 12:19:22;;;;;;;6.20;1.90;;;;;;;;;;4980584;28;20409;-75
2021/01/26 12:21:48;;;;;;;9.35;2.38;;;;;;;;;;4976993;28;20464;-74
2021/01/26 12:24:13;;;;;;;4.35;2.13;;;;;;;;;;4994737;28;20061;-75
2021/01/26 12:26:39;;;;;;;8.20;2.70;;;;;;;;;;5008945;28;20085;-74
2021/01/26 12:29:04;;;;;;;6.07;2.13;;;;;;;;;;4993404;28;20042;-74
2021/01/26 12:31:30;;;;;;;5.68;1.90;;;;;;;;;;5012275;28;20044;-74
2021/01/26 12:33:55;;;;;;;7.57;1.90;;;;;;;;;;5013243;28;20373;-76
2021/01/26 12:36:21;;;;;;;6.32;1.58;;;;;;;;;;4996325;28;20030;-75
2021/01/26 12:38:46;;;;;;;5.00;1.50;;;;;;;;;;5012568;28;20064;-76
2021/01/26 12:41:12;;;;;;;9.90;1.90;;;;;;;;;;5030167;28;20381;-74
2021/01/26 12:43:37;;;;;;;6.28;2.20;;;;;;;;;;5008204;28;20458;-74
2021/01/26 12:46:02;;;;;;;5.88;1.70;;;;;;;;;;5003988;28;20396;-76
2021/01/26 12:48:29;;;;;;;6.30;2.17;;;;;;;;;;5009183;28;20384;-76
2021/01/26 12:50:54;;;;;;;6.55;1.65;;;;;;;;;;5015765;28;20036;-77
2021/01/26 12:53:19;;;;;;;5.47;1.77;;;;;;;;;;5020504;28;20116;-74
2021/01/26 12:55:45;;;;;;;7.65;2.00;;;;;;;;;;4995799;28;20049;-75
2021/01/26 12:58:10;;;;;;;4.90;1.50;;;;;;;;;;4995385;28;20488;-74
2021/01/26 13:00:36;;;;;;;7.45;1.55;;;;;;;;;;5013344;28;20341;-73
2021/01/26 13:03:01;;;;;;;5.53;2.00;;;;;;;;;;4998059;28;20041;-72
2021/01/26 13:05:27;;;;;;;6.25;2.15;;;;;;;;;;4988137;28;20388;-76
2021/01/26 13:07:52;;;;;;;6.30;1.70;;;;;;;;;;5005226;28;20037;-75
2021/01/26 13:10:18;;;;;;;7.82;2.75;;;;;;;;;;5022216;28;20037;-75
2021/01/26 13:12:44;;;;;;;3.60;1.50;;;;;;;;;;5004061;28;20092;-74
2021/01/26 13:15:10;;;;;;;5.20;1.88;;;;;;;;;;5004196;28;20057;-75
2021/01/26 13:17:35;;;;;;;5.90;1.90;;;;;;;;;;5004419;28;20498;-75
2021/01/26 13:20:01;;;;;;;4.07;1.30;;;;;;;;;;5014111;28;20037;-76
2021/01/26 13:22:27;;;;;;;5.53;2.08;;;;;;;;;;5015481;28;20038;-75
2021/01/26 13:24:52;;;;;;;4.60;1.85;;;;;;;;;;4999292;28;20171;-75
2021/01/26 13:27:18;;;;;;;6.03;1.70;;;;;;;;;;4992390;28;20046;-75
2021/01/26 13:29:44;;;;;;;4.55;2.00;;;;;;;;;;4985200;28;20434;-76
2021/01/26 13:32:10;;;;;;;6.43;2.22;;;;;;;;;;4994777;28;20034;-77
2021/01/26 13:34:35;;;;;;;5.40;1.30;;;;;;;;;;5011513;28;20180;-77
2021/01/26 13:37:01;;;;;;;5.57;1.52;;;;;;;;;;4974479;28;20399;-77
2021/01/26 13:39:26;;;;;;;4.55;1.58;;;;;;;;;;5003656;28;20075;-77
2021/01/26 13:41:55;;;;;;;7.07;2.17;;;;;;;;;;4994440;28;20411;-77
2021/01/26 13:44:21;;;;;;;4.95;1.40;;;;;;;;;;5011250;28;20030;-77
2021/01/26 13:46:46;;;;;;;5.20;2.28;;;;;;;;;;4978647;28;20491;-77
2021/01/26 13:49:12;;;;;;;5.50;1.52;;;;;;;;;;5005223;28;20052;-76
2021/01/26 13:51:37;;;;;;;4.68;1.40;;;;;;;;;;5031102;28;20438;-76
2021/01/26 13:54:03;;;;;;;7.30;1.60;;;;;;;;;;4980964;28;20038;-76
2021/01/26 13:56:29;;;;;;;6.50;1.75;;;;;;;;;;5012058;28;20036;-76
2021/01/26 13:58:54;;;;;;;5.88;1.55;;;;;;;;;;4997938;28;20033;-76
2021/01/26 14:01:19;;;;;;;7.10;1.90;;;;;;;;;;4994118;28;20034;-76
2021/01/26 14:03:45;;;;;;;606.97;307.02;;;;;;;;;;5011194;28;20033;-76
2021/01/26 14:06:10;;;;;;;295.75;128.45;;;;;;;;;;4994701;28;20384;-76
2021/01/26 14:08:36;;;;;;;211.77;91.43;;;;;;;;;;4978464;28;20041;-76
2021/01/26 14:11:01;;;;;;;201.95;87.28;;;;;;;;;;4978241;28;20454;-76
2021/01/26 14:13:27;;;;;;;189.18;79.30;;;;;;;;;;4994500;28;20026;-76
2021/01/26 14:15:52;;;;;;;156.68;65.18;;;;;;;;;;4994627;28;20760;-76
2021/01/26 14:18:18;;;;;;;142.02;59.03;;;;;;;;;;4994822;28;20077;-76
2021/01/26 14:20:43;;;;;;;124.22;51.63;;;;;;;;;;4994607;28;20411;-75
2021/01/26 14:23:09;;;;;;;110.57;46.67;;;;;;;;;;4991151;28;20033;-76
2021/01/26 14:25:34;;;;;;;96.65;44.22;;;;;;;;;;4991080;28;20038;-76
2021/01/26 14:28:00;;;;;;;83.60;36.33;;;;;;;;;;4993897;28;20388;-75
2021/01/26 14:30:25;;;;;;;78.40;32.80;;;;;;;;;;4993053;28;20045;-75
2021/01/26 14:32:50;;;;;;;81.13;35.00;;;;;;;;;;5008525;28;20412;-75
2021/01/26 14:35:18;;;;;;;67.53;30.60;;;;;;;;;;4975263;28;20084;-74
2021/01/26 14:37:44;;;;;;;71.30;30.02;;;;;;;;;;5008971;28;20092;-75
2021/01/26 14:40:10;;;;;;;63.50;27.77;;;;;;;;;;4993923;28;20042;-75
2021/01/26 14:42:35;;;;;;;60.58;26.65;;;;;;;;;;4995445;28;20029;-75
2021/01/26 14:45:01;;;;;;;53.60;24.92;;;;;;;;;;5009846;28;20117;-75
2021/01/26 14:47:26;;;;;;;56.47;24.50;;;;;;;;;;5010674;28;20108;-75
2021/01/26 14:49:51;;;;;;;58.78;23.67;;;;;;;;;;5010114;28;20042;-76
2021/01/26 14:52:17;;;;;;;47.40;21.52;;;;;;;;;;4994460;28;20385;-76
2021/01/26 14:54:42;;;;;;;46.47;21.00;;;;;;;;;;4993033;28;20381;-75
2021/01/26 14:57:08;;;;;;;39.42;18.85;;;;;;;;;;4982686;28;20042;-75
2021/01/26 14:59:33;;;;;;;40.92;19.05;;;;;;;;;;4996114;28;20389;-75
2021/01/26 15:01:59;;;;;;;39.58;15.80;;;;;;;;;;5014170;28;20400;-75
2021/01/26 15:04:24;;;;;;;46.67;19.17;;;;;;;;;;4998093;28;20400;-75
2021/01/26 15:06:50;;;;;;;37.45;16.15;;;;;;;;;;4981701;28;20492;-75